Airfield :
LOGIN :

Register | Disclaimer

   EN    FR    IT 

 










Legend :    VFR   Marginal VFR   IFR   Intensive IFR   Very Intensive IFR
Visi :
Ceiling :
>= 8 km
>= 3000ft
5 to 8 km
1000 to 3000 ft
1500m to 5 km
500 to 1000 ft
800 to 1500m
200 to 500 ft
< 800m
< 200 ft
Symbols :   Thunderstorms  Fog  Heavy snow  Heavy precipitations  Wind > 20 kt
SIGMETs :     Misc.  Thunderstorms  Icing  Turbulence  Mountain Waves  Volcanic Ashes






- Airport Elevation : 265 ft


LFMC - Le Luc

CURRENT METAR :
  • 171130Z AUTO 30020G33KT 270V330 9999 ////// 19/M02 Q1006

EXPIRED METARs :
  • 171100Z AUTO 31017KT 290V350 9999 ////// 18/M02 Q1006
  • 171030Z AUTO 32024G36KT 9999 ////// 18/M03 Q1007
  • 171000Z AUTO 32021G33KT 280V340 9999 ////// 17/M02 Q1007
  • 170930Z AUTO 32023G33KT 9999 ////// 17/M01 Q1007
  • 170900Z AUTO 31028G39KT 9999 ////// 16/M02 Q1007
  • 170830Z AUTO 31028KT 9999 ////// 15/M02 Q1007
  • 170800Z AUTO 31023G35KT 9999 ////// 15/M01 Q1007
  • 170730Z AUTO 31026KT 9999 ////// 14/00 Q1007
  • 170700Z AUTO 31027KT 9999 ////// 13/00 Q1007
  • 170630Z AUTO 31024G35KT 9999 ////// 12/01 Q1007

TAF N/A



MET'MAP, your aeronautical weather chart ! - Copyright ORBIFLY December 2007 - Disclaimer

ORBIFLY MET'MAP TEAM :

Programming & Development : Alexandra Zaïnal
Original concept : Baudouin d'Aumeries
Technical & hardware support : Manuel Goepfert
Assistance : Marc-Olivier Méhu




SOURCES & CREDITS :

   NOAA